Terminal Aerodrome Forecast
Issued by NWS

Home | Current Version | Previous Version | Text Only | Print | Product List | Glossary On
Versions: 1 2 3 4 5 6 7 8 9 10 11 12 13 14 15 16 17 18 19 20 21 22 23 24
000
FTUS43 KABR 061248 AAA
TAFPIR
TAF AMD
KPIR 061248Z 0613/0712 35013KT 1SM HZ OVC035
     FM061800 35014G22KT 4SM HZ SCT050
     FM070100 VRB04KT 3SM HZ SKC
     FM070500 VRB04KT P6SM SKC=

USA.gov is the U.S. government's official web portal to all federal, state and local government web resources and services.